Time;durP1;ratioP1;P1;durP2;ratioP2;P2;SDS_P1;SDS_P2;PMS_P1;PMS_P2;Temp;Humidity;BMP_temperature;BMP_pressure;BME280_temperature;BME280_humidity;BME280_pressure;Samples;Min_cycle;Max_cycle;Signal;HPM_P1;HPM_P2
2023/07/01 00:01:09;;;;;;;4.60;4.20;;;;;;;15.91;100.00;100112.33;105714;1259;63987;-43
2023/07/01 00:03:37;;;;;;;5.70;4.50;;;;;;;15.91;100.00;100112.52;105706;1265;72684;-41
2023/07/01 00:06:04;;;;;;;5.20;4.70;;;;;;;15.90;100.00;100119.52;105726;1260;60541;-43
2023/07/01 00:08:32;;;;;;;16.20;5.40;;;;;;;15.91;100.00;100123.45;105708;1259;60431;-43
2023/07/01 00:11:00;;;;;;;7.20;4.80;;;;;;;15.89;100.00;100125.46;105734;1254;72571;-43
2023/07/01 00:13:28;;;;;;;5.20;4.70;;;;;;;15.88;100.00;100126.38;105887;1256;64009;-45
2023/07/01 00:15:56;;;;;;;9.80;4.50;;;;;;;15.87;100.00;100125.02;105877;1254;71419;-41
2023/07/01 00:18:24;;;;;;;5.40;4.40;;;;;;;15.85;100.00;100124.06;105902;1257;60536;-43
2023/07/01 00:20:53;;;;;;;7.90;4.60;;;;;;;15.84;100.00;100119.59;105870;1257;60414;-42
2023/07/01 00:23:20;;;;;;;7.30;5.20;;;;;;;15.82;100.00;100120.52;105907;1253;72639;-41
2023/07/01 00:25:48;;;;;;;6.50;4.40;;;;;;;15.82;100.00;100118.27;105858;1257;63921;-44
2023/07/01 00:28:16;;;;;;;5.70;5.00;;;;;;;15.82;100.00;100117.55;105823;1254;71426;-41
2023/07/01 00:30:43;;;;;;;5.20;4.50;;;;;;;15.79;100.00;100121.34;105850;1254;61644;-41
2023/07/01 00:33:12;;;;;;;7.00;4.70;;;;;;;15.75;100.00;100124.45;105724;1257;60413;-41
2023/07/01 00:35:39;;;;;;;4.60;4.20;;;;;;;15.73;100.00;100130.63;105845;1254;72583;-41
2023/07/01 00:38:07;;;;;;;5.00;4.60;;;;;;;15.72;100.00;100133.16;105877;1254;63988;-42
2023/07/01 00:40:35;;;;;;;4.90;4.40;;;;;;;15.70;100.00;100136.55;105847;1254;73083;-42
2023/07/01 00:43:03;;;;;;;7.10;4.40;;;;;;;15.68;100.00;100133.69;105704;1257;60287;-41
2023/07/01 00:45:31;;;;;;;6.50;4.30;;;;;;;15.67;100.00;100138.59;105897;1257;60329;-43
2023/07/01 00:47:59;;;;;;;4.50;4.10;;;;;;;15.65;100.00;100140.91;105815;1251;73807;-44
2023/07/01 00:50:27;;;;;;;4.80;4.40;;;;;;;15.67;100.00;100146.42;105894;1257;64073;-41
2023/07/01 00:52:55;;;;;;;10.30;4.30;;;;;;;15.68;100.00;100147.97;105829;1254;72628;-43
2023/07/01 00:55:22;;;;;;;5.10;3.80;;;;;;;15.70;100.00;100144.90;105695;1254;60920;-42
2023/07/01 00:57:50;;;;;;;5.80;4.40;;;;;;;15.73;100.00;100147.05;105773;1252;60319;-44
2023/07/01 01:00:18;;;;;;;6.20;4.50;;;;;;;15.77;100.00;100149.95;105897;1257;73852;-43
2023/07/01 01:03:20;;;;;;;5.00;4.00;;;;;;;15.86;100.00;100155.52;105618;1251;64316;-43
2023/07/01 01:06:05;;;;;;;5.80;4.10;;;;;;;15.93;100.00;100152.59;105607;1254;71362;-43
2023/07/01 01:08:40;;;;;;;7.10;4.30;;;;;;;15.95;100.00;100152.52;105718;1259;60875;-40
2023/07/01 01:11:08;;;;;;;8.90;4.10;;;;;;;15.94;100.00;100146.80;105925;1251;60425;-43
2023/07/01 01:13:36;;;;;;;5.40;3.70;;;;;;;15.95;100.00;100138.23;105626;1252;72932;-40
2023/07/01 01:16:04;;;;;;;4.50;3.80;;;;;;;15.95;100.00;100135.63;105683;1259;64107;-43
2023/07/01 01:18:32;;;;;;;4.80;4.30;;;;;;;15.92;100.00;100134.53;105841;1251;72610;-41
2023/07/01 01:21:00;;;;;;;7.10;4.30;;;;;;;15.89;100.00;100136.38;105692;1258;60541;-41
2023/07/01 01:23:46;;;;;;;6.80;4.00;;;;;;;15.88;100.00;100134.19;105858;1251;60651;-40
2023/07/01 01:26:18;;;;;;;5.10;4.10;;;;;;;15.85;100.00;100136.96;105758;1251;72616;-42
2023/07/01 01:28:46;;;;;;;5.80;4.40;;;;;;;15.80;100.00;100135.58;105917;1257;64009;-42
2023/07/01 01:31:14;;;;;;;8.50;4.00;;;;;;;15.76;100.00;100136.98;105843;1257;71408;-43
2023/07/01 01:33:42;;;;;;;4.70;3.80;;;;;;;15.72;100.00;100143.90;105841;1267;60623;-42
2023/07/01 01:36:14;;;;;;;4.30;3.90;;;;;;;15.69;100.00;100151.58;105688;1260;60341;-42
2023/07/01 01:38:42;;;;;;;7.10;4.20;;;;;;;15.65;100.00;100150.48;105892;1254;72338;-42
2023/07/01 01:41:17;;;;;;;5.40;4.10;;;;;;;15.63;100.00;100153.20;105674;1254;64047;-41
2023/07/01 01:43:51;;;;;;;9.00;4.90;;;;;;;15.62;100.00;100155.86;105709;1259;71379;-42
2023/07/01 01:46:19;;;;;;;5.80;3.80;;;;;;;15.61;100.00;100159.19;105890;1254;61342;-44
2023/07/01 01:48:47;;;;;;;9.40;4.60;;;;;;;15.62;100.00;100161.08;105698;1254;60422;-43
2023/07/01 01:51:15;;;;;;;3.80;3.50;;;;;;;15.63;100.00;100165.04;105874;1258;73826;-42
2023/07/01 01:53:44;;;;;;;5.50;4.20;;;;;;;15.62;100.00;100164.19;105673;1254;63367;-43
2023/07/01 01:56:11;;;;;;;7.20;4.60;;;;;;;15.62;100.00;100169.55;105695;1256;72662;-43
2023/07/01 01:58:39;;;;;;;4.90;4.20;;;;;;;15.63;100.00;100167.31;105696;1254;60465;-44
2023/07/01 02:01:07;;;;;;;5.60;4.50;;;;;;;15.62;100.00;100166.80;105606;1251;60335;-43
2023/07/01 02:03:35;;;;;;;8.60;4.00;;;;;;;15.61;100.00;100166.50;105675;1251;71645;-42
2023/07/01 02:06:03;;;;;;;5.10;4.00;;;;;;;15.62;100.00;100168.91;105688;1260;65169;-45
2023/07/01 02:08:30;;;;;;;4.60;4.20;;;;;;;15.62;100.00;100171.35;105857;1260;71879;-41
2023/07/01 02:10:58;;;;;;;4.90;4.20;;;;;;;15.61;100.00;100178.86;105694;1260;60520;-46
2023/07/01 02:13:26;;;;;;;6.60;4.50;;;;;;;15.62;100.00;100180.39;105607;1257;60443;-41
2023/07/01 02:15:53;;;;;;;5.00;4.50;;;;;;;15.64;100.00;100184.66;105545;1255;73881;-47
2023/07/01 02:18:21;;;;;;;7.80;4.20;;;;;;;15.65;100.00;100190.51;105683;1257;63985;-47
2023/07/01 02:20:48;;;;;;;4.50;3.80;;;;;;;15.64;100.00;100193.52;105708;1258;71817;-41
2023/07/01 02:23:16;;;;;;;8.80;4.00;;;;;;;15.63;100.00;100196.00;105706;1255;60457;-42
2023/07/01 02:25:45;;;;;;;9.90;4.20;;;;;;;15.61;100.00;100195.39;105675;1255;60433;-42
2023/07/01 02:28:13;;;;;;;5.70;4.20;;;;;;;15.62;100.00;100205.09;105683;1254;72520;-40
2023/07/01 02:30:41;;;;;;;5.10;4.60;;;;;;;15.64;100.00;100206.55;105702;1257;64052;-43
2023/07/01 02:33:11;;;;;;;6.90;4.40;;;;;;;15.65;100.00;100208.59;105667;1254;71761;-41
2023/07/01 02:35:38;;;;;;;5.70;4.40;;;;;;;15.70;100.00;100209.95;105649;1261;60534;-43
2023/07/01 02:38:08;;;;;;;4.70;3.80;;;;;;;15.76;100.00;100205.52;105750;1257;60793;-42
2023/07/01 02:40:35;;;;;;;7.80;4.30;;;;;;;15.83;100.00;100209.41;105671;1257;72827;-42
2023/07/01 02:43:03;;;;;;;6.40;4.10;;;;;;;15.86;100.00;100211.66;105667;1258;64003;-41
2023/07/01 02:45:31;;;;;;;4.10;3.70;;;;;;;15.91;100.00;100212.53;105676;1254;72048;-43
2023/07/01 02:47:58;;;;;;;8.80;3.90;;;;;;;15.97;100.00;100212.98;105694;1254;60509;-41
2023/07/01 02:50:26;;;;;;;5.60;4.60;;;;;;;16.02;100.00;100212.92;105718;1254;60442;-40
2023/07/01 02:52:54;;;;;;;4.50;4.20;;;;;;;16.08;100.00;100213.19;105671;1253;72955;-44
2023/07/01 02:55:23;;;;;;;6.40;4.40;;;;;;;16.13;100.00;100214.02;105663;1254;63920;-43
2023/07/01 02:57:52;;;;;;;5.20;3.90;;;;;;;16.18;100.00;100217.10;105696;1254;72629;-43
2023/07/01 03:00:20;;;;;;;8.00;4.20;;;;;;;16.24;100.00;100220.30;105670;1257;60534;-41
2023/07/01 03:02:50;;;;;;;4.10;3.70;;;;;;;16.28;100.00;100220.45;105780;1257;60457;-41
2023/07/01 03:05:21;;;;;;;7.20;4.50;;;;;;;16.32;100.00;100225.85;105684;1254;73818;-41
2023/07/01 03:07:49;;;;;;;4.70;4.30;;;;;;;16.36;100.00;100230.38;105711;1258;64051;-43
2023/07/01 03:10:16;;;;;;;5.30;3.90;;;;;;;16.41;100.00;100237.81;105698;1259;71510;-43
2023/07/01 03:12:44;;;;;;;4.40;3.90;;;;;;;16.48;100.00;100238.35;105812;1254;60558;-42
2023/07/01 03:15:12;;;;;;;4.80;4.00;;;;;;;16.53;100.00;100242.11;105914;1258;61827;-41
2023/07/01 03:17:40;;;;;;;5.40;4.10;;;;;;;16.58;100.00;100246.59;105879;1253;72818;-45
2023/07/01 03:20:20;;;;;;;8.60;4.00;;;;;;;16.63;100.00;100246.02;105847;1254;65232;-44
2023/07/01 03:22:53;;;;;;;5.90;4.10;;;;;;;16.68;100.00;100248.73;105920;1256;72358;-44
2023/07/01 03:25:21;;;;;;;6.40;3.90;;;;;;;16.74;100.00;100242.87;105853;1251;61704;-45
2023/07/01 03:27:49;;;;;;;3.80;3.60;;;;;;;16.82;100.00;100243.23;105704;1259;60446;-40
2023/07/01 03:30:17;;;;;;;5.00;4.50;;;;;;;16.89;100.00;100245.84;105851;1254;72637;-42
2023/07/01 03:32:46;;;;;;;8.50;4.10;;;;;;;16.95;100.00;100242.06;105701;1259;62956;-43
2023/07/01 03:35:15;;;;;;;4.60;4.20;;;;;;;17.04;100.00;100243.59;105870;1258;71423;-41
2023/07/01 03:37:43;;;;;;;5.50;4.00;;;;;;;17.15;100.00;100242.20;105887;1257;60555;-42
2023/07/01 03:40:11;;;;;;;3.80;3.40;;;;;;;17.26;100.00;100239.88;105910;1251;60293;-41
2023/07/01 03:42:40;;;;;;;5.70;3.80;;;;;;;17.41;100.00;100235.16;105829;1256;73792;-42
2023/07/01 03:45:10;;;;;;;7.40;4.20;;;;;;;17.64;100.00;100240.24;105881;1257;63943;-41
2023/07/01 03:47:43;;;;;;;6.20;4.10;;;;;;;17.92;100.00;100243.05;105881;1257;70415;-41
2023/07/01 03:50:11;;;;;;;5.90;4.10;;;;;;;18.22;100.00;100238.68;105903;1257;60511;-43
2023/07/01 03:52:39;;;;;;;8.50;4.10;;;;;;;18.51;100.00;100237.79;105892;1256;60412;-44
2023/07/01 03:55:11;;;;;;;9.00;4.50;;;;;;;18.79;100.00;100218.99;105915;1254;73811;-43
2023/07/01 03:57:39;;;;;;;6.70;4.00;;;;;;;19.05;100.00;100187.28;105914;1254;63380;-43
2023/07/01 04:00:08;;;;;;;6.70;4.30;;;;;;;19.28;100.00;100155.31;105882;1254;71725;-43
2023/07/01 04:02:39;;;;;;;6.40;4.40;;;;;;;19.45;100.00;100107.92;105897;1253;60550;-41
2023/07/01 04:05:10;;;;;;;4.40;3.90;;;;;;;19.63;100.00;100055.39;105910;1256;60410;-42
2023/07/01 04:07:43;;;;;;;8.00;4.50;;;;;;;19.83;100.00;100009.20;105902;1251;72602;-44
2023/07/01 04:10:11;;;;;;;6.50;4.40;;;;;;;20.03;100.00;99955.04;105895;1256;63948;-44
2023/07/01 04:12:39;;;;;;;6.60;4.60;;;;;;;20.27;100.00;99908.98;105863;1256;70882;-43
2023/07/01 04:15:11;;;;;;;5.90;4.40;;;;;;;20.39;100.00;99843.70;105856;1253;61685;-42
2023/07/01 04:17:43;;;;;;;6.30;4.10;;;;;;;20.55;100.00;99809.26;105897;1257;60431;-42
2023/07/01 04:20:11;;;;;;;7.20;5.00;;;;;;;20.72;100.00;99771.68;105877;1255;72670;-44
2023/07/01 04:22:39;;;;;;;5.00;4.40;;;;;;;20.79;100.00;99724.70;105867;1257;63899;-45
2023/07/01 04:25:08;;;;;;;11.40;5.00;;;;;;;20.87;100.00;99696.96;105848;1257;71721;-43
2023/07/01 04:27:36;;;;;;;10.20;4.80;;;;;;;20.98;100.00;99686.32;105664;1256;336968;-42
2023/07/01 04:30:58;;;;;;;7.80;4.80;;;;;;;21.16;100.00;99650.46;102705;1292;600218;-41
2023/07/01 04:33:26;;;;;;;13.50;4.90;;;;;;;21.34;100.00;99648.22;104786;1269;59808;-45
2023/07/01 04:35:54;;;;;;;5.70;4.20;;;;;;;21.55;100.00;99629.80;104797;1271;59287;-45
2023/07/01 04:38:22;;;;;;;5.50;4.40;;;;;;;21.71;100.00;99609.05;104620;1269;71008;-46
2023/07/01 04:40:49;;;;;;;8.40;4.60;;;;;;;21.85;100.00;99597.26;104780;1269;64387;-44
2023/07/01 04:43:20;;;;;;;6.00;4.20;;;;;;;21.95;100.00;99580.31;104718;1268;71638;-45
2023/07/01 04:45:48;;;;;;;8.10;4.70;;;;;;;22.09;100.00;99577.17;104712;1266;211178;-42
2023/07/01 04:48:16;;;;;;;4.40;4.10;;;;;;;22.22;100.00;99575.02;104853;1270;59293;-43
2023/07/01 04:50:43;;;;;;;7.60;5.30;;;;;;;22.34;100.00;99568.93;104846;1266;70969;-44
2023/07/01 04:53:12;;;;;;;5.10;4.60;;;;;;;22.54;100.00;99567.00;104875;1270;63986;-43
2023/07/01 04:55:40;;;;;;;5.80;4.50;;;;;;;22.77;100.00;99567.95;104761;1271;71834;-42
2023/07/01 04:58:07;;;;;;;4.90;4.30;;;;;;;22.85;100.00;99568.71;104836;1266;59629;-43
2023/07/01 05:00:37;;;;;;;7.60;4.60;;;;;;;22.81;100.00;99580.29;104935;1267;59543;-41
2023/07/01 05:03:05;;;;;;;10.00;4.70;;;;;;;22.77;100.00;99589.38;104888;1266;71871;-44
2023/07/01 05:05:33;;;;;;;5.60;4.50;;;;;;;22.78;100.00;99602.32;104907;1266;64035;-44
2023/07/01 05:08:00;;;;;;;5.50;4.40;;;;;;;22.82;100.00;99618.32;105652;1257;71465;-44
2023/07/01 05:10:29;;;;;;;7.90;4.00;;;;;;;22.85;100.00;99637.64;105651;1259;60065;-41
2023/07/01 05:12:57;;;;;;;4.90;4.40;;;;;;;22.87;100.00;99651.34;105793;1258;59721;-42
2023/07/01 05:15:24;;;;;;;9.50;4.20;;;;;;;23.02;100.00;99652.02;105712;1258;73024;-43
2023/07/01 05:17:52;;;;;;;7.60;4.70;;;;;;;23.09;100.00;99675.23;105680;1253;64084;-41
2023/07/01 05:20:20;;;;;;;10.00;4.80;;;;;;;22.97;100.00;99700.27;105640;1257;71380;-43
2023/07/01 05:22:47;;;;;;;10.10;4.50;;;;;;;22.87;100.00;99713.82;105670;1253;59652;-42
2023/07/01 05:25:15;;;;;;;5.80;4.70;;;;;;;22.80;100.00;99719.11;105662;1259;59634;-43
2023/07/01 05:27:44;;;;;;;12.40;4.60;;;;;;;22.81;100.00;99720.55;105617;1253;71711;-43
2023/07/01 05:30:12;;;;;;;7.20;4.30;;;;;;;22.88;100.00;99718.81;105659;1258;63919;-42
2023/07/01 05:32:40;;;;;;;6.20;4.70;;;;;;;23.01;100.00;99718.60;105683;1253;72656;-43
2023/07/01 05:35:08;;;;;;;6.50;4.50;;;;;;;23.06;100.00;99734.52;105650;1258;59663;-44
2023/07/01 05:37:36;;;;;;;10.40;5.20;;;;;;;23.12;100.00;99743.06;105736;1258;59627;-43
2023/07/01 05:40:05;;;;;;;6.90;4.50;;;;;;;23.32;100.00;99741.05;105688;1253;72045;-42
2023/07/01 05:42:32;;;;;;;5.30;4.80;;;;;;;23.47;100.00;99749.35;105690;1259;64029;-43
2023/07/01 05:45:01;;;;;;;8.80;5.20;;;;;;;23.60;100.00;99756.55;105665;1258;72638;-44
2023/07/01 05:47:28;;;;;;;6.00;4.50;;;;;;;23.79;100.00;99767.61;105634;1253;60055;-44
2023/07/01 05:49:57;;;;;;;11.10;4.90;;;;;;;23.92;100.00;99783.63;105658;1253;59803;-42
2023/07/01 05:52:25;;;;;;;4.50;4.10;;;;;;;23.89;100.00;99798.12;105647;1253;73079;-44
2023/07/01 05:54:54;;;;;;;7.90;4.60;;;;;;;23.75;100.00;99814.30;105660;1253;63956;-44
2023/07/01 05:57:22;;;;;;;6.90;4.70;;;;;;;23.64;100.00;99820.11;105629;1258;72647;-43
2023/07/01 05:59:49;;;;;;;4.60;4.30;;;;;;;23.60;100.00;99829.60;105695;1257;59775;-43
2023/07/01 06:02:17;;;;;;;5.10;4.50;;;;;;;23.60;100.00;99822.02;105638;1258;59534;-42
2023/07/01 06:04:45;;;;;;;7.50;5.10;;;;;;;23.69;100.00;99814.45;105739;1254;73198;-43
2023/07/01 06:07:13;;;;;;;7.70;4.50;;;;;;;23.90;100.00;99813.09;105762;1258;64643;-42
2023/07/01 06:09:47;;;;;;;5.40;4.20;;;;;;;23.92;100.00;99822.75;105735;1253;71708;-43
2023/07/01 06:12:15;;;;;;;4.90;4.10;;;;;;;23.93;100.00;99827.99;105782;1259;60117;-42
2023/07/01 06:14:42;;;;;;;7.10;4.50;;;;;;;24.10;100.00;99828.98;105650;1259;59917;-42
2023/07/01 06:17:10;;;;;;;10.40;4.90;;;;;;;24.14;100.00;99834.14;105646;1258;73108;-41
2023/07/01 06:19:38;;;;;;;4.90;4.50;;;;;;;24.12;100.00;99847.38;105768;1257;65327;-43
2023/07/01 06:22:05;;;;;;;4.80;4.40;;;;;;;24.10;100.00;99852.45;105756;1253;72710;-42
2023/07/01 06:24:33;;;;;;;5.00;4.40;;;;;;;24.07;100.00;99852.69;105671;1256;60326;-44
2023/07/01 06:27:01;;;;;;;4.30;4.10;;;;;;;24.10;100.00;99859.67;105813;1253;59615;-43
2023/07/01 06:29:29;;;;;;;4.90;4.30;;;;;;;24.11;100.00;99858.30;105667;1253;72078;-44
2023/07/01 06:31:56;;;;;;;7.10;4.60;;;;;;;24.04;100.00;99870.18;105682;1258;63585;-44
2023/07/01 06:34:24;;;;;;;4.90;4.40;;;;;;;23.98;100.00;99873.84;105633;1259;73057;-44
2023/07/01 06:36:52;;;;;;;6.30;4.90;;;;;;;24.07;100.00;99867.35;105690;1254;60038;-45
2023/07/01 06:39:19;;;;;;;14.30;5.60;;;;;;;24.05;100.00;99876.23;105735;1258;59698;-43
2023/07/01 06:41:47;;;;;;;5.00;4.60;;;;;;;24.10;100.00;99862.61;105644;1253;71801;-44
2023/07/01 06:44:15;;;;;;;5.90;5.40;;;;;;;24.21;100.00;99865.23;105636;1253;63440;-43
2023/07/01 06:46:42;;;;;;;12.00;5.90;;;;;;;24.36;100.00;99851.48;105625;1258;71365;-42
2023/07/01 06:49:10;;;;;;;8.50;5.00;;;;;;;24.39;100.00;99853.13;105645;1253;60052;-43
2023/07/01 06:51:38;;;;;;;12.30;5.20;;;;;;;24.48;100.00;99847.09;105714;1259;60389;-43
2023/07/01 06:54:06;;;;;;;7.60;5.50;;;;;;;24.46;100.00;99854.02;105731;1258;73012;-44
2023/07/01 06:56:33;;;;;;;6.60;6.00;;;;;;;24.53;100.00;99841.89;105724;1253;63574;-44
2023/07/01 06:59:01;;;;;;;11.40;6.00;;;;;;;24.73;100.00;99836.71;105696;1258;71729;-42
2023/07/01 07:01:30;;;;;;;8.10;5.20;;;;;;;24.81;100.00;99845.00;105545;1256;59778;-42
2023/07/01 07:03:58;;;;;;;6.70;5.70;;;;;;;24.79;100.00;99857.00;105553;1253;59976;-42
2023/07/01 07:06:26;;;;;;;8.30;5.50;;;;;;;24.80;100.00;99855.83;105714;1253;71786;-46
2023/07/01 07:08:53;;;;;;;5.60;5.20;;;;;;;24.93;100.00;99851.67;105665;1258;64545;-44
2023/07/01 07:11:21;;;;;;;6.70;5.30;;;;;;;25.03;100.00;99854.20;105702;1256;72685;-42
2023/07/01 07:13:49;;;;;;;8.00;5.20;;;;;;;24.99;100.00;99855.26;105653;1255;59638;-44
2023/07/01 07:16:16;;;;;;;6.70;6.00;;;;;;;24.86;100.00;99868.20;105627;1259;59701;-43
2023/07/01 07:18:44;;;;;;;9.90;5.70;;;;;;;24.87;100.00;99861.22;105621;1253;71728;-44
2023/07/01 07:21:12;;;;;;;7.10;5.30;;;;;;;24.91;100.00;99868.25;105623;1258;63935;-44
2023/07/01 07:23:40;;;;;;;5.50;5.10;;;;;;;24.97;100.00;99857.55;105678;1258;71463;-43
2023/07/01 07:26:08;;;;;;;5.70;5.30;;;;;;;24.84;100.00;99873.63;105651;1256;59631;-43
2023/07/01 07:28:38;;;;;;;5.70;5.30;;;;;;;24.80;100.00;99861.60;105666;1253;60093;-43
2023/07/01 07:31:06;;;;;;;6.20;5.10;;;;;;;24.78;100.00;99875.80;105662;1258;72080;-42
2023/07/01 07:33:33;;;;;;;6.60;5.30;;;;;;;24.79;100.00;99878.33;105656;1259;63953;-45
2023/07/01 07:36:01;;;;;;;5.80;5.40;;;;;;;24.70;100.00;99876.20;105649;1256;71551;-45
2023/07/01 07:38:29;;;;;;;6.20;5.20;;;;;;;24.58;100.00;99893.50;105668;1258;59661;-45
2023/07/01 07:40:57;;;;;;;7.60;5.20;;;;;;;24.60;100.00;99899.20;105687;1258;59683;-45
2023/07/01 07:43:25;;;;;;;5.90;4.70;;;;;;;24.74;100.00;99885.44;105646;1253;71796;-45
2023/07/01 07:45:52;;;;;;;5.20;4.80;;;;;;;24.87;100.00;99885.76;105673;1259;65188;-43
2023/07/01 07:48:20;;;;;;;8.60;5.60;;;;;;;24.94;100.00;99873.98;105627;1258;71963;-45
2023/07/01 07:50:48;;;;;;;7.60;4.90;;;;;;;24.88;100.00;99896.23;105654;1259;59785;-45
2023/07/01 07:53:16;;;;;;;6.10;5.00;;;;;;;24.96;100.00;99901.16;105793;1257;59631;-45
2023/07/01 07:55:44;;;;;;;7.80;5.00;;;;;;;25.06;100.00;99901.52;105779;1256;71819;-42
2023/07/01 07:58:13;;;;;;;15.30;4.70;;;;;;;25.16;100.00;99899.43;105662;1259;65194;-45
2023/07/01 08:00:41;;;;;;;6.70;4.80;;;;;;;25.18;100.00;99884.10;105687;1259;72000;-43
2023/07/01 08:03:08;;;;;;;6.00;4.30;;;;;;;25.23;100.00;99904.98;105646;1256;59652;-43
2023/07/01 08:05:37;;;;;;;4.90;4.50;;;;;;;25.36;100.00;99897.36;105659;1259;60042;-44
2023/07/01 08:08:04;;;;;;;6.30;5.40;;;;;;;25.51;100.00;99894.58;105668;1260;73047;-42
2023/07/01 08:10:32;;;;;;;4.80;4.50;;;;;;;25.58;100.00;99894.13;105660;1259;64097;-45
2023/07/01 08:13:00;;;;;;;8.30;5.30;;;;;;;25.54;98.31;99874.39;105658;1259;72889;-44
2023/07/01 08:15:28;;;;;;;5.20;4.80;;;;;;;25.39;98.97;99897.55;105744;1257;59713;-44
2023/07/01 08:17:56;;;;;;;5.80;4.30;;;;;;;25.43;100.00;99909.19;105692;1259;59610;-43
2023/07/01 08:20:24;;;;;;;7.30;5.00;;;;;;;25.50;100.00;99907.55;105673;1260;72818;-45
2023/07/01 08:22:52;;;;;;;5.50;4.90;;;;;;;25.54;98.91;99899.25;105670;1259;64081;-45
2023/07/01 08:25:22;;;;;;;5.10;4.70;;;;;;;25.52;98.88;99899.44;105651;1256;71138;-44
2023/07/01 08:27:51;;;;;;;6.80;4.60;;;;;;;25.55;100.00;99930.05;105677;1253;59734;-44
2023/07/01 08:30:19;;;;;;;5.10;4.70;;;;;;;25.72;96.83;99895.75;105740;1259;60136;-42
2023/07/01 08:32:47;;;;;;;8.30;4.80;;;;;;;25.86;97.15;99906.30;105628;1254;71835;-44
2023/07/01 08:35:16;;;;;;;5.20;4.50;;;;;;;26.04;93.27;99901.30;105699;1258;64438;-42
2023/07/01 08:37:44;;;;;;;14.40;5.60;;;;;;;26.09;94.64;99914.09;105662;1258;71426;-44
2023/07/01 08:40:12;;;;;;;11.30;5.00;;;;;;;26.17;94.04;99911.10;105639;1259;60422;-43
2023/07/01 08:42:48;;;;;;;9.80;4.70;;;;;;;26.22;87.78;99891.20;105657;1259;60887;-43
2023/07/01 08:45:20;;;;;;;7.50;5.00;;;;;;;26.14;84.04;99896.64;105718;1258;72691;-45
2023/07/01 08:47:52;;;;;;;11.40;4.70;;;;;;;26.09;87.75;99916.73;105697;1258;65148;-43
2023/07/01 08:50:20;;;;;;;5.00;4.60;;;;;;;26.12;87.08;99909.73;105660;1259;72665;-45
2023/07/01 08:52:52;;;;;;;4.80;4.40;;;;;;;26.11;84.08;99904.53;105650;1254;60541;-45
2023/07/01 08:55:20;;;;;;;7.60;4.90;;;;;;;26.05;82.15;99912.13;105667;1254;60448;-43
2023/07/01 08:57:48;;;;;;;5.50;5.10;;;;;;;26.22;89.47;99935.92;105640;1261;72478;-43
2023/07/01 09:00:15;;;;;;;5.20;4.80;;;;;;;26.41;78.16;99873.10;105640;1258;65172;-44
2023/07/01 09:02:43;;;;;;;5.60;4.60;;;;;;;26.52;76.89;99887.44;105653;1258;71479;-44
2023/07/01 09:05:11;;;;;;;7.90;4.30;;;;;;;26.63;73.76;99862.34;105635;1259;60499;-45
2023/07/01 09:07:42;;;;;;;5.50;4.50;;;;;;;26.65;70.81;99848.23;105675;1258;60484;-43
2023/07/01 09:10:13;;;;;;;6.70;4.60;;;;;;;26.70;69.67;99845.08;105679;1259;72507;-43
2023/07/01 09:12:41;;;;;;;4.90;4.40;;;;;;;26.83;67.78;99825.95;105652;1258;65141;-44
2023/07/01 09:15:10;;;;;;;8.20;4.60;;;;;;;26.95;65.34;99789.11;105646;1258;72599;-44
2023/07/01 09:17:39;;;;;;;6.40;4.40;;;;;;;26.70;67.41;99853.04;105653;1259;60512;-46
2023/07/01 09:20:09;;;;;;;7.90;4.70;;;;;;;26.72;68.30;99874.98;105718;1259;60582;-43
2023/07/01 09:22:39;;;;;;;4.50;4.10;;;;;;;26.86;68.03;99868.84;105585;1260;73816;-45
2023/07/01 09:25:07;;;;;;;12.60;4.60;;;;;;;27.01;67.10;99853.47;105723;1258;65210;-46
2023/07/01 09:27:45;;;;;;;8.60;4.20;;;;;;;27.03;63.75;99793.44;105664;1257;71742;-44
2023/07/01 09:30:20;;;;;;;5.00;4.30;;;;;;;27.05;65.91;99848.52;105680;1255;60537;-44
2023/07/01 09:32:48;;;;;;;8.00;4.50;;;;;;;27.33;65.34;99837.95;105626;1260;60411;-43
2023/07/01 09:35:16;;;;;;;5.30;4.30;;;;;;;27.53;62.96;99792.93;105688;1258;73790;-42
2023/07/01 09:37:46;;;;;;;8.10;4.30;;;;;;;27.57;61.35;99767.93;105639;1258;64100;-44
2023/07/01 09:40:22;;;;;;;219.40;114.50;;;;;;;27.46;58.88;99719.96;105685;1259;71515;-43
2023/07/01 09:42:54;;;;;;;22.10;11.80;;;;;;;27.53;57.37;99679.78;105687;1254;60426;-42
2023/07/01 09:45:21;;;;;;;4.10;3.90;;;;;;;27.46;55.77;99631.77;105685;1258;60464;-44
2023/07/01 09:47:52;;;;;;;6.40;3.70;;;;;;;27.34;55.79;99673.02;105539;1255;72616;-45
2023/07/01 09:50:29;;;;;;;81.10;53.50;;;;;;;27.35;55.16;99649.89;105671;1260;64025;-45
2023/07/01 09:52:57;;;;;;;25.10;19.10;;;;;;;27.37;54.87;99657.09;105678;1254;72670;-44
2023/07/01 09:55:25;;;;;;;9.70;7.90;;;;;;;27.33;54.54;99653.64;105692;1260;60540;-42
2023/07/01 09:57:53;;;;;;;13.40;6.70;;;;;;;27.29;56.53;99749.53;105675;1258;60270;-43
2023/07/01 10:00:20;;;;;;;13.50;5.40;;;;;;;27.44;56.05;99731.88;105671;1264;73809;-43
2023/07/01 10:02:48;;;;;;;33.80;13.90;;;;;;;27.67;55.57;99701.98;105654;1258;64100;-44
2023/07/01 10:05:16;;;;;;;6.40;4.70;;;;;;;27.86;53.00;99580.01;105700;1253;71395;-44
2023/07/01 10:07:45;;;;;;;17.50;6.10;;;;;;;27.80;52.36;99561.49;105613;1259;60425;-45
2023/07/01 10:10:17;;;;;;;5.10;4.60;;;;;;;27.72;52.53;99588.27;105715;1253;60601;-45
2023/07/01 10:12:45;;;;;;;4.90;3.40;;;;;;;27.63;53.35;99653.63;105681;1258;72587;-43
2023/07/01 10:15:23;;;;;;;8.50;3.00;;;;;;;27.72;51.99;99584.69;105653;1263;64008;-44
2023/07/01 10:17:52;;;;;;;20.40;5.30;;;;;;;27.76;52.34;99601.79;105666;1254;71824;-43
2023/07/01 10:20:28;;;;;;;3.80;3.20;;;;;;;27.93;52.98;99654.58;105681;1259;60483;-44
2023/07/01 10:22:57;;;;;;;8.10;3.30;;;;;;;27.96;50.16;99463.64;105646;1259;60517;-43
2023/07/01 10:25:30;;;;;;;4.90;3.00;;;;;;;27.84;48.09;99305.92;105670;1254;74347;-42
2023/07/01 10:27:59;;;;;;;5.80;3.10;;;;;;;27.69;49.13;99421.58;105688;1258;64107;-45
2023/07/01 10:30:47;;;;;;;24.10;4.00;;;;;;;27.80;49.34;99473.38;105711;1256;71464;-43
2023/07/01 10:33:27;;;;;;;5.60;2.80;;;;;;;27.90;49.08;99439.89;105636;1255;60765;-45
2023/07/01 10:36:03;;;;;;;7.00;2.70;;;;;;;28.16;49.37;99463.40;105696;1259;60608;-43
2023/07/01 10:38:31;;;;;;;10.90;2.60;;;;;;;28.32;47.36;99275.59;105727;1258;72577;-42
2023/07/01 10:40:59;;;;;;;22.00;3.60;;;;;;;28.36;46.83;99254.06;105678;1260;65121;-42
2023/07/01 10:43:33;;;;;;;22.20;3.40;;;;;;;28.40;45.61;99108.45;105710;1256;71710;-44
2023/07/01 10:46:23;;;;;;;25.70;3.30;;;;;;;28.34;46.20;99209.81;105715;1254;60446;-43
2023/07/01 10:49:05;;;;;;;4.90;2.90;;;;;;;28.27;45.65;99164.33;105706;1255;60346;-44
2023/07/01 10:51:53;;;;;;;3.50;2.90;;;;;;;28.22;45.06;99094.81;105695;1254;72530;-45
2023/07/01 10:54:39;;;;;;;5.50;2.70;;;;;;;28.21;45.74;99209.98;105588;1254;64324;-43
2023/07/01 10:57:18;;;;;;;6.70;3.10;;;;;;;28.39;45.04;99140.59;105684;1258;71336;-43
2023/07/01 10:59:46;;;;;;;10.80;3.50;;;;;;;28.45;44.68;99075.55;105674;1255;60463;-44
2023/07/01 11:02:37;;;;;;;4.00;3.40;;;;;;;28.48;45.76;99210.08;105673;1253;60462;-43
2023/07/01 11:05:07;;;;;;;7.60;4.30;;;;;;;28.67;45.42;99205.55;105652;1254;72549;-45
2023/07/01 11:07:37;;;;;;;15.20;3.70;;;;;;;28.86;42.78;98907.57;105673;1259;65285;-45
2023/07/01 11:10:06;;;;;;;33.30;3.80;;;;;;;28.78;43.51;98955.02;105660;1259;72712;-42
2023/07/01 11:12:35;;;;;;;20.50;3.70;;;;;;;28.89;42.86;98950.48;105675;1254;60509;-42
2023/07/01 11:15:03;;;;;;;19.90;2.90;;;;;;;28.98;42.80;98901.77;105688;1260;60363;-44
2023/07/01 11:17:32;;;;;;;11.60;2.90;;;;;;;28.99;42.07;98840.79;105689;1255;72617;-42
2023/07/01 11:20:00;;;;;;;9.90;2.90;;;;;;;28.99;41.95;98807.49;105673;1259;65393;-45
2023/07/01 11:22:27;;;;;;;16.90;3.20;;;;;;;28.96;42.25;98846.91;105661;1259;70848;-43
2023/07/01 11:25:03;;;;;;;5.70;2.60;;;;;;;29.01;41.93;98817.71;105639;1260;60442;-43